!!! Benutzen Sie für Ihre Flugvorbereitung die offiziellen Quellen !!!

Metar:

EDQM 191650Z 25014KT 9999 FEW009 BKN015 BKN046 02/00 Q1012

QNH: 1012
Temperatur: 2
Dew Point : 0

 

METAR (decoded)